地図

経路データ

SID SEASON NUMBER BASIN SUBBASIN NAME ISO_TIME NATURE LAT LON WMO_WIND WMO_PRES WMO_AGENCY TRACK_TYPE DIST2LAND LANDFALL IFLAG USA_AGENCY USA_ATCF_ID USA_LAT USA_LON USA_RECORD USA_STATUS USA_WIND USA_PRES USA_SSHS USA_R34_NE USA_R34_SE USA_R34_SW USA_R34_NW USA_R50_NE USA_R50_SE USA_R50_SW USA_R50_NW USA_R64_NE USA_R64_SE USA_R64_SW USA_R64_NW USA_POCI USA_ROCI USA_RMW USA_EYE TOKYO_LAT TOKYO_LON TOKYO_GRADE TOKYO_WIND TOKYO_PRES TOKYO_R50_DIR TOKYO_R50_LONG TOKYO_R50_SHORT TOKYO_R30_DIR TOKYO_R30_LONG TOKYO_R30_SHORT TOKYO_LAND CMA_LAT CMA_LON CMA_CAT CMA_WIND CMA_PRES HKO_LAT HKO_LON HKO_CAT HKO_WIND HKO_PRES NEWDELHI_LAT NEWDELHI_LON NEWDELHI_GRADE NEWDELHI_WIND NEWDELHI_PRES NEWDELHI_CI NEWDELHI_DP NEWDELHI_POCI REUNION_LAT REUNION_LON REUNION_TYPE REUNION_WIND REUNION_PRES REUNION_TNUM REUNION_CI REUNION_RMW REUNION_R34_NE REUNION_R34_SE REUNION_R34_SW REUNION_R34_NW REUNION_R50_NE REUNION_R50_SE REUNION_R50_SW REUNION_R50_NW REUNION_R64_NE REUNION_R64_SE REUNION_R64_SW REUNION_R64_NW BOM_LAT BOM_LON BOM_TYPE BOM_WIND BOM_PRES BOM_TNUM BOM_CI BOM_RMW BOM_R34_NE BOM_R34_SE BOM_R34_SW BOM_R34_NW BOM_R50_NE BOM_R50_SE BOM_R50_SW BOM_R50_NW BOM_R64_NE BOM_R64_SE BOM_R64_SW BOM_R64_NW BOM_ROCI BOM_POCI BOM_EYE BOM_POS_METHOD BOM_PRES_METHOD NADI_LAT NADI_LON NADI_CAT NADI_WIND NADI_PRES WELLINGTON_LAT WELLINGTON_LON WELLINGTON_WIND WELLINGTON_PRES DS824_LAT DS824_LON DS824_STAGE DS824_WIND DS824_PRES TD9636_LAT TD9636_LON TD9636_STAGE TD9636_WIND TD9636_PRES TD9635_LAT TD9635_LON TD9635_WIND TD9635_PRES TD9635_ROCI NEUMANN_LAT NEUMANN_LON NEUMANN_CLASS NEUMANN_WIND NEUMANN_PRES MLC_LAT MLC_LON MLC_CLASS MLC_WIND MLC_PRES USA_GUST BOM_GUST BOM_GUST_PER REUNION_GUST REUNION_GUST_PER USA_SEAHGT USA_SEARAD_NE USA_SEARAD_SE USA_SEARAD_SW USA_SEARAD_NW STORM_SPEED STORM_DIR
1914216N24086 1914 22 NI BB NOT_NAMED 1914-08-04 00:00:00 TS 23.9000 85.5000 main 0 0 _________O____ -1 23.9000 85.5000 TC 30 2 317
1914216N24086 1914 22 NI BB NOT_NAMED 1914-08-04 03:00:00 TS 23.9650 85.4417 main 0 0 _________PO___ -1 23.9975 85.4125 TC 30 23.9000 85.5000 1 2 315
1914216N24086 1914 22 NI BB NOT_NAMED 1914-08-04 06:00:00 TS 24.0657 85.3233 main 0 0 _________OP___ -1 24.1000 85.3000 TC 30 24.0143 85.3581 1 3 311
1914216N24086 1914 22 NI BB NOT_NAMED 1914-08-04 09:00:00 TS 24.1712 85.1813 main 0 0 _________PP___ -1 24.2075 85.1500 TC 30 24.1228 85.2229 1 3 308
1914216N24086 1914 22 NI BB NOT_NAMED 1914-08-04 12:00:00 TS 24.2599 85.0506 main 0 0 _________OP___ -1 24.3000 85.0000 TC 30 24.2199 85.1012 1 3 306
1914216N24086 1914 22 NI BB NOT_NAMED 1914-08-04 15:00:00 TS 24.3287 84.9462 main 0 0 _________PO___ -1 24.3575 84.8925 TC 30 24.3000 85.0000 1 2 305
1914216N24086 1914 22 NI BB NOT_NAMED 1914-08-04 18:00:00 TS 24.3800 84.8605 main 0 0 _________OP___ -1 24.4000 84.8000 TC 30 24.3601 84.9210 1 2 303
1914216N24086 1914 22 NI BB NOT_NAMED 1914-08-04 21:00:00 TS 24.4248 84.7835 main 0 0 _________PP___ -1 24.4424 84.7224 TC 30 24.4071 84.8447 1 2 299
1914216N24086 1914 22 NI BB NOT_NAMED 1914-08-05 00:00:00 TS 24.4753 84.6730 main 0 0 _________OP___ -1 24.5000 84.6000 TC 30 24.4506 84.7460 1 3 295
1914216N24086 1914 22 NI BB NOT_NAMED 1914-08-05 03:00:00 TS 24.5500 84.4900 main 0 0 _________PO___ -1 24.6000 84.3801 TC 30 24.5000 84.6000 1 4 292
1914216N24086 1914 22 NI BB NOT_NAMED 1914-08-05 06:00:00 TS 24.6361 84.2357 main 0 0 _________OP___ -1 24.7000 84.1000 TC 30 24.5721 84.3714 1 5 287
1914216N24086 1914 22 NI BB NOT_NAMED 1914-08-05 09:00:00 TS 24.7039 83.9513 main 0 0 _________PP___ -1 24.7575 83.8074 TC 30 24.6503 84.0952 1 5 284
1914216N24086 1914 22 NI BB NOT_NAMED 1914-08-05 12:00:00 TS 24.7642 83.6482 main 0 0 _________OP___ -1 24.8000 83.5000 TC 30 24.7283 83.7964 1 6 282
1914216N24086 1914 22 NI BB NOT_NAMED 1914-08-05 15:00:00 TS 24.8250 83.3425 main 0 0 _________PO___ -1 24.8500 83.1850 TC 30 24.8000 83.5000 1 6 282
1914216N24086 1914 22 NI BB NOT_NAMED 1914-08-05 18:00:00 TS 24.8827 83.0511 main 0 0 _________OP___ -1 24.9000 82.9000 TC 30 24.8655 83.2022 1 5 283
1914216N24086 1914 22 NI BB NOT_NAMED 1914-08-05 21:00:00 TS 24.9401 82.7863 main 0 0 _________PP___ -1 24.9575 82.6550 TC 30 24.9227 82.9175 1 4 284
1914216N24086 1914 22 NI BB NOT_NAMED 1914-08-06 00:00:00 TS 24.9843 82.5871 main 0 0 _________OP___ -1 25.0000 82.5000 TC 30 24.9686 82.6741 1 3 283
1914216N24086 1914 22 NI BB NOT_NAMED 1914-08-06 03:00:00 TS 25.0037 82.4850 main 0 0 _________PO___ -1 25.0075 82.4700 TC 30 25.0000 82.5000 1 1 282
1914216N24086 1914 22 NI BB NOT_NAMED 1914-08-06 06:00:00 TS 25.0071 82.4640 main 0 0 _________OP___ -1 25.0000 82.5000 TC 30 25.0141 82.4280 1 0 0
1914216N24086 1914 22 NI BB NOT_NAMED 1914-08-06 09:00:00 TS 25.0074 82.4624 main 0 0 _________PP___ -1 25.0000 82.5000 TC 30 25.0147 82.4249 1 0 0
1914216N24086 1914 22 NI BB NOT_NAMED 1914-08-06 12:00:00 TS 25.0040 82.4797 main 0 0 _________OP___ -1 25.0000 82.5000 TC 30 25.0080 82.4593 1 0 101
1914216N24086 1914 22 NI BB NOT_NAMED 1914-08-06 15:00:00 TS 25.0000 82.5000 main 0 0 _________PO___ -1 25.0000 82.5000 TC 30 25.0000 82.5000 1 0 96
1914216N24086 1914 22 NI BB NOT_NAMED 1914-08-06 18:00:00 TS 24.9998 82.5305 main 0 0 _________OP___ -1 25.0000 82.5000 TC 30 24.9997 82.5609 1 1 90
1914216N24086 1914 22 NI BB NOT_NAMED 1914-08-06 21:00:00 TS 24.9996 82.5825 main 0 0 _________PP___ -1 24.9999 82.5525 TC 30 24.9994 82.6125 1 0 0
1914216N24086 1914 22 NI BB NOT_NAMED 1914-08-07 00:00:00 TS 24.9997 82.5539 main 0 0 _________OP___ -1 25.0000 82.5000 TC 30 24.9994 82.6078 1 2 270
1914216N24086 1914 22 NI BB NOT_NAMED 1914-08-07 03:00:00 TS 25.0000 82.3550 main 0 0 _________PO___ -1 25.0001 82.2100 TC 30 25.0000 82.5000 1 5 270
1914216N24086 1914 22 NI BB NOT_NAMED 1914-08-07 06:00:00 TS 25.0003 82.0144 main 0 0 _________OP___ -1 25.0000 81.8000 TC 30 25.0006 82.2287 1 7 270
1914216N24086 1914 22 NI BB NOT_NAMED 1914-08-07 09:00:00 TS 25.0004 81.6275 main 0 0 _________PP___ -1 25.0000 81.4000 TC 30 25.0008 81.8550 1 7 270
1914216N24086 1914 22 NI BB NOT_NAMED 1914-08-07 12:00:00 TS 25.0003 81.2144 main 0 0 _________OP___ -1 25.0000 81.0000 TC 30 25.0006 81.4287 1 7 270
1914216N24086 1914 22 NI BB NOT_NAMED 1914-08-07 15:00:00 TS 24.9999 80.8213 main 0 0 _________PO___ -1 24.9999 80.6425 TC 30 25.0000 81.0000 1 7 270
1914216N24086 1914 22 NI BB NOT_NAMED 1914-08-07 18:00:00 TS 24.9998 80.4763 main 0 0 _________OP___ -1 25.0000 80.3000 TC 30 24.9997 80.6085 1 6 270
1914216N24086 1914 22 NI BB NOT_NAMED 1914-08-07 21:00:00 TS 25.0000 80.1325 main 0 0 _________PP___ -1 25.0002 79.9525 TC 30 24.9998 80.2526 1 6 270
1914216N24086 1914 22 NI BB NOT_NAMED 1914-08-08 00:00:00 TS 25.0000 79.8136 main 0 0 _________OP___ -1 25.0000 79.6000 TC 30 25.0000 79.9204 1 5 270
1914216N24086 1914 22 NI BB NOT_NAMED 1914-08-08 03:00:00 NR 25.0000 79.6000 main 0 __________O___ -1 TC 25.0000 79.6000 1 4 270

IBTrACS Databaseについて

本データベースは、米国NOAAが公開する1842年以降の世界の熱帯低気圧のベストトラックデータアーカイブInternational Best Track Archive for Climate Stewardship (IBTrACS)を、ウェブで閲覧しやすい形式に変換したものです。

最終更新日:2021-12-01